createdAt,value
2019-02-18T00:02:10.688Z,10.63
2019-02-18T00:04:39.510Z,11.10
2019-02-18T00:07:14.484Z,9.87
2019-02-18T00:09:38.934Z,10.47
2019-02-18T00:12:07.973Z,11.33
2019-02-18T00:14:36.965Z,11.17
2019-02-18T00:17:05.622Z,10.53
2019-02-18T00:19:34.615Z,11.13
2019-02-18T00:22:03.518Z,11.30
2019-02-18T00:24:32.187Z,11.10
2019-02-18T00:27:01.661Z,13.33
2019-02-18T00:29:30.411Z,11.40
2019-02-18T00:31:59.548Z,10.53
2019-02-18T00:34:28.471Z,10.90
2019-02-18T00:36:57.125Z,12.00
2019-02-18T00:39:25.798Z,11.40
2019-02-18T00:41:54.558Z,11.27
2019-02-18T00:44:23.445Z,10.40
2019-02-18T00:46:52.123Z,11.80
2019-02-18T00:49:21.781Z,10.93
2019-02-18T00:51:50.503Z,12.07
2019-02-18T00:54:19.217Z,11.30
2019-02-18T00:56:48.524Z,12.63
2019-02-18T00:59:17.293Z,12.53
2019-02-18T01:01:46.223Z,11.33
2019-02-18T01:04:15.390Z,11.53
2019-02-18T01:06:44.074Z,11.83
2019-02-18T01:09:13.060Z,12.20
2019-02-18T01:11:41.815Z,10.43
2019-02-18T01:14:10.480Z,11.73
2019-02-18T01:16:39.150Z,11.53
2019-02-18T01:19:08.249Z,11.50
2019-02-18T01:21:36.979Z,11.87
2019-02-18T01:24:05.651Z,12.10
2019-02-18T01:26:34.349Z,12.20
2019-02-18T01:29:03.217Z,12.30
2019-02-18T01:31:31.901Z,12.23
2019-02-18T01:34:00.834Z,11.90
2019-02-18T01:36:29.722Z,13.43
2019-02-18T01:38:58.389Z,11.73
2019-02-18T01:41:27.342Z,12.03
2019-02-18T01:43:56.000Z,11.40
2019-02-18T01:46:25.242Z,12.97
2019-02-18T01:48:54.275Z,11.67
2019-02-18T01:51:24.167Z,12.97
2019-02-18T01:53:52.845Z,12.97
2019-02-18T01:56:21.856Z,12.70
2019-02-18T01:58:50.620Z,12.93
2019-02-18T02:01:20.239Z,13.22
2019-02-18T02:03:49.496Z,12.83
2019-02-18T02:06:18.165Z,11.83
2019-02-18T02:08:47.115Z,11.90
2019-02-18T02:11:15.812Z,14.47
2019-02-18T02:13:44.717Z,13.93
2019-02-18T02:16:13.696Z,11.40
2019-02-18T02:18:43.271Z,11.90
2019-02-18T02:21:11.953Z,13.58
2019-02-18T02:23:40.651Z,11.20
2019-02-18T02:26:09.339Z,13.27
2019-02-18T02:28:37.991Z,11.40
2019-02-18T02:31:06.704Z,11.97
2019-02-18T02:33:35.955Z,12.23
2019-02-18T02:36:04.963Z,11.57
2019-02-18T02:38:33.627Z,13.07
2019-02-18T02:41:02.348Z,13.32
2019-02-18T02:43:31.287Z,12.43
2019-02-18T02:45:59.991Z,13.27
2019-02-18T02:48:28.676Z,11.63
2019-02-18T02:50:57.340Z,11.63
2019-02-18T02:53:26.615Z,12.90
2019-02-18T02:55:55.626Z,12.97
2019-02-18T02:58:24.342Z,12.17
2019-02-18T03:00:53.024Z,13.43
2019-02-18T03:03:22.346Z,12.83
2019-02-18T03:05:51.236Z,13.03
2019-02-18T03:08:20.985Z,13.40
2019-02-18T03:10:49.873Z,13.90
2019-02-18T03:13:18.813Z,13.93
2019-02-18T03:15:47.743Z,13.10
2019-02-18T03:18:16.513Z,13.28
2019-02-18T03:20:45.406Z,12.70
2019-02-18T03:23:14.352Z,13.80
2019-02-18T03:25:44.115Z,12.80
2019-02-18T03:28:38.845Z,12.50
2019-02-18T03:31:14.837Z,11.97
2019-02-18T03:33:47.330Z,15.03
2019-02-18T03:36:16.016Z,14.07
2019-02-18T03:38:44.771Z,12.37
2019-02-18T03:41:13.450Z,14.70
2019-02-18T03:43:42.144Z,14.23
2019-02-18T03:46:10.924Z,13.27
2019-02-18T03:48:39.870Z,12.87
2019-02-18T03:51:08.953Z,14.83
2019-02-18T03:53:38.210Z,12.87
2019-02-18T03:56:07.972Z,13.63
2019-02-18T03:58:36.842Z,12.17
2019-02-18T04:01:05.618Z,13.30
2019-02-18T04:03:34.888Z,13.30
2019-02-18T04:06:03.705Z,13.53
2019-02-18T04:08:42.274Z,12.87
2019-02-18T04:11:03.299Z,13.23
2019-02-18T04:13:31.963Z,14.57
2019-02-18T04:16:00.906Z,13.37
2019-02-18T04:18:30.113Z,13.43
2019-02-18T04:20:58.829Z,14.63
2019-02-18T04:23:27.550Z,13.57
2019-02-18T04:25:56.377Z,13.80
2019-02-18T04:28:25.029Z,14.27
2019-02-18T04:30:54.009Z,14.05
2019-02-18T04:33:22.682Z,13.77
2019-02-18T04:35:51.614Z,13.67
2019-02-18T04:38:20.586Z,13.57
2019-02-18T04:40:49.250Z,12.47
2019-02-18T04:43:18.197Z,13.47
2019-02-18T04:45:47.052Z,14.23
2019-02-18T04:48:15.952Z,12.77
2019-02-18T04:50:44.944Z,13.10
2019-02-18T04:53:14.155Z,13.73
2019-02-18T04:55:42.831Z,15.33
2019-02-18T04:58:13.292Z,14.73
2019-02-18T05:00:42.027Z,14.43
2019-02-18T05:03:10.847Z,13.33
2019-02-18T05:05:39.695Z,14.50
2019-02-18T05:08:08.785Z,12.83
2019-02-18T05:10:38.120Z,13.80
2019-02-18T05:13:07.359Z,13.83
2019-02-18T05:15:36.051Z,14.37
2019-02-18T05:18:04.747Z,14.27
2019-02-18T05:20:33.670Z,13.73
2019-02-18T05:23:02.718Z,12.63
2019-02-18T05:25:31.485Z,14.23
2019-02-18T05:28:00.168Z,14.47
2019-02-18T05:30:29.600Z,13.60
2019-02-18T05:32:58.593Z,13.97
2019-02-18T05:35:27.826Z,14.87
2019-02-18T05:37:56.794Z,13.80
2019-02-18T05:40:25.485Z,13.27
2019-02-18T05:42:54.163Z,13.93
2019-02-18T05:45:22.872Z,13.70
2019-02-18T05:47:51.541Z,15.27
2019-02-18T05:50:20.426Z,13.67
2019-02-18T05:52:49.127Z,15.53
2019-02-18T05:55:18.262Z,14.50
2019-02-18T05:57:47.178Z,14.40
2019-02-18T06:00:16.574Z,12.90
2019-02-18T06:02:45.580Z,13.50
2019-02-18T06:05:14.577Z,13.67
2019-02-18T06:07:43.895Z,14.07
2019-02-18T06:10:17.124Z,14.10
2019-02-18T06:12:46.197Z,14.43
2019-02-18T06:15:14.914Z,13.13
2019-02-18T06:17:43.828Z,14.97
2019-02-18T06:20:12.008Z,13.27
2019-02-18T06:22:40.693Z,12.70
2019-02-18T06:25:09.886Z,13.47
2019-02-18T06:27:38.565Z,13.50
2019-02-18T06:30:08.178Z,14.57
2019-02-18T06:32:36.825Z,13.57
2019-02-18T06:35:05.646Z,12.13
2019-02-18T06:37:34.946Z,13.33
2019-02-18T06:40:03.720Z,13.40
2019-02-18T06:42:32.483Z,13.23
2019-02-18T06:45:35.574Z,12.60
2019-02-18T06:48:11.470Z,14.47
2019-02-18T06:50:40.371Z,12.37
2019-02-18T06:53:09.282Z,15.47
2019-02-18T06:55:37.989Z,11.07
2019-02-18T06:58:27.267Z,12.63
2019-02-18T07:01:00.394Z,11.57
2019-02-18T07:03:43.379Z,12.17
2019-02-18T07:06:19.110Z,11.03
2019-02-18T07:08:59.762Z,11.43
2019-02-18T07:11:53.362Z,11.20
2019-02-18T07:14:22.089Z,10.65
2019-02-18T07:16:50.771Z,10.93
2019-02-18T07:19:19.907Z,11.53
2019-02-18T07:21:48.603Z,10.65
2019-02-18T07:24:17.271Z,12.50
2019-02-18T07:26:45.985Z,11.03
2019-02-18T07:29:14.740Z,10.85
2019-02-18T07:31:43.411Z,10.53
2019-02-18T07:34:12.306Z,11.38
2019-02-18T07:36:40.996Z,11.70
2019-02-18T07:39:09.661Z,10.90
2019-02-18T07:41:38.342Z,11.85
2019-02-18T07:44:07.026Z,11.08
2019-02-18T07:46:35.705Z,11.63
2019-02-18T07:49:04.375Z,10.88
2019-02-18T07:51:34.140Z,10.84
2019-02-18T07:54:02.977Z,10.57
2019-02-18T07:56:31.894Z,11.05
2019-02-18T07:59:00.665Z,11.05
2019-02-18T08:01:29.400Z,11.03
2019-02-18T08:03:58.383Z,9.83
2019-02-18T08:06:27.694Z,11.15
2019-02-18T08:08:56.605Z,10.98
2019-02-18T08:11:25.525Z,10.10
2019-02-18T08:13:54.223Z,11.18
2019-02-18T08:16:22.907Z,10.23
2019-02-18T08:18:51.622Z,10.28
2019-02-18T08:21:20.610Z,10.58
2019-02-18T08:23:59.438Z,10.93
2019-02-18T08:26:19.663Z,12.45
2019-02-18T08:28:49.279Z,11.20
2019-02-18T08:31:18.178Z,9.60
2019-02-18T08:33:47.090Z,10.43
2019-02-18T08:36:15.794Z,10.93
2019-02-18T08:38:44.754Z,11.12
2019-02-18T08:41:13.687Z,11.70
2019-02-18T08:43:42.391Z,11.15
2019-02-18T08:46:11.182Z,10.88
2019-02-18T08:48:40.025Z,11.73
2019-02-18T08:51:08.789Z,11.12
2019-02-18T08:53:37.715Z,10.45
2019-02-18T08:56:08.046Z,11.93
2019-02-18T08:58:37.156Z,11.08
2019-02-18T09:01:06.275Z,12.15
2019-02-18T09:03:35.007Z,12.13
2019-02-18T09:06:04.017Z,11.48
2019-02-18T09:08:33.903Z,12.17
2019-02-18T09:11:02.592Z,11.43
2019-02-18T09:13:31.631Z,12.23
2019-02-18T09:16:00.690Z,12.25
2019-02-18T09:18:29.720Z,11.25
2019-02-18T09:20:58.442Z,10.60
2019-02-18T09:23:37.434Z,10.90
2019-02-18T09:26:06.661Z,10.53
2019-02-18T09:28:36.103Z,10.95
2019-02-18T09:31:04.820Z,9.88
2019-02-18T09:33:33.853Z,10.65
2019-02-18T09:36:02.542Z,10.68
2019-02-18T09:38:31.290Z,11.93
2019-02-18T09:40:59.998Z,10.58
2019-02-18T09:43:28.998Z,10.70
2019-02-18T09:45:58.098Z,10.35
2019-02-18T09:48:26.870Z,10.45
2019-02-18T09:50:55.789Z,11.10
2019-02-18T09:53:30.745Z,11.30
2019-02-18T09:56:02.195Z,10.30
2019-02-18T09:58:31.672Z,10.10
2019-02-18T10:01:04.411Z,11.53
2019-02-18T10:03:33.170Z,10.85
2019-02-18T10:06:02.229Z,10.15
2019-02-18T10:08:32.311Z,11.08
2019-02-18T10:11:03.132Z,10.68
2019-02-18T10:13:31.894Z,10.75
2019-02-18T10:16:00.767Z,10.45
2019-02-18T10:18:30.956Z,12.82
2019-02-18T10:20:59.746Z,11.57
2019-02-18T10:23:28.577Z,11.22
2019-02-18T10:25:57.665Z,11.10
2019-02-18T10:28:26.647Z,10.35
2019-02-18T10:30:55.323Z,10.98
2019-02-18T10:33:24.258Z,10.65
2019-02-18T10:35:52.975Z,11.15
2019-02-18T10:38:21.875Z,10.90
2019-02-18T10:40:51.009Z,11.35
2019-02-18T10:43:19.686Z,10.35
2019-02-18T10:45:48.398Z,10.08
2019-02-18T10:48:17.700Z,12.55
2019-02-18T10:50:46.550Z,10.45
2019-02-18T10:53:15.474Z,9.03
2019-02-18T10:55:44.250Z,9.38
2019-02-18T10:58:13.379Z,10.10
2019-02-18T11:00:42.088Z,9.63
2019-02-18T11:03:10.856Z,9.23
2019-02-18T11:05:39.894Z,9.58
2019-02-18T11:08:08.561Z,9.65
2019-02-18T11:10:37.315Z,10.63
2019-02-18T11:13:06.918Z,9.60
2019-02-18T11:15:35.927Z,10.13
2019-02-18T11:18:05.092Z,10.50
2019-02-18T11:20:33.830Z,10.58
2019-02-18T11:23:02.623Z,12.18
2019-02-18T11:25:31.906Z,10.32
2019-02-18T11:28:01.082Z,9.88
2019-02-18T11:30:29.947Z,10.85
2019-02-18T11:32:58.641Z,9.30
2019-02-18T11:35:27.791Z,9.63
2019-02-18T11:37:56.783Z,11.28
2019-02-18T11:40:25.773Z,11.68
2019-02-18T11:42:54.732Z,9.65
2019-02-18T11:45:25.772Z,12.43
2019-02-18T11:47:54.481Z,10.45
2019-02-18T11:50:23.138Z,10.50
2019-02-18T11:52:51.806Z,9.73
2019-02-18T11:55:20.530Z,10.50
2019-02-18T11:57:49.725Z,11.30
2019-02-18T12:00:18.683Z,9.55
2019-02-18T12:02:47.786Z,10.28
2019-02-18T12:05:16.530Z,9.65
2019-02-18T12:07:45.285Z,11.97
2019-02-18T12:10:14.304Z,9.50
2019-02-18T12:12:43.347Z,13.77
2019-02-18T12:15:12.378Z,9.30
2019-02-18T12:17:41.250Z,11.65
2019-02-18T12:20:11.879Z,9.55
2019-02-18T12:22:40.886Z,9.50
2019-02-18T12:25:10.252Z,8.85
2019-02-18T12:27:39.289Z,9.80
2019-02-18T12:30:09.045Z,10.28
2019-02-18T12:32:37.904Z,10.13
2019-02-18T12:35:06.829Z,8.90
2019-02-18T12:37:35.509Z,9.03
2019-02-18T12:40:04.712Z,10.98
2019-02-18T12:42:33.858Z,11.22
2019-02-18T12:45:02.537Z,11.15
2019-02-18T12:47:31.598Z,9.93
2019-02-18T12:50:00.633Z,9.25
2019-02-18T12:52:30.912Z,9.25
2019-02-18T12:55:00.499Z,10.32
2019-02-18T12:57:29.663Z,9.43
2019-02-18T13:00:02.155Z,10.23
2019-02-18T13:02:31.003Z,11.40
2019-02-18T13:04:59.802Z,9.33
2019-02-18T13:07:28.829Z,8.03
2019-02-18T13:09:57.694Z,10.43
2019-02-18T13:12:27.735Z,10.08
2019-02-18T13:14:56.494Z,9.68
2019-02-18T13:17:32.005Z,9.88
2019-02-18T13:20:00.805Z,9.35
2019-02-18T13:22:29.628Z,10.53
2019-02-18T13:24:58.400Z,7.45
2019-02-18T13:27:29.271Z,9.77
2019-02-18T13:29:57.995Z,7.90
2019-02-18T13:32:27.409Z,8.20
2019-02-18T13:34:56.262Z,8.08
2019-02-18T13:37:25.112Z,9.23
2019-02-18T13:39:54.264Z,10.03
2019-02-18T13:42:23.082Z,10.40
2019-02-18T13:44:52.032Z,9.27
2019-02-18T13:47:21.131Z,10.03
2019-02-18T13:49:50.300Z,8.30
2019-02-18T13:52:22.171Z,7.78
2019-02-18T13:54:51.126Z,9.95
2019-02-18T13:57:20.243Z,9.33
2019-02-18T13:59:49.120Z,9.35
2019-02-18T14:02:22.821Z,9.10
2019-02-18T14:04:51.598Z,9.08
2019-02-18T14:07:20.329Z,7.92
2019-02-18T14:09:49.265Z,8.40
2019-02-18T14:12:18.126Z,9.20
2019-02-18T14:14:47.154Z,7.87
2019-02-18T14:17:17.488Z,8.70
2019-02-18T14:19:46.498Z,8.33
2019-02-18T14:22:15.461Z,8.47
2019-02-18T14:24:44.362Z,7.97
2019-02-18T14:27:13.565Z,8.78
2019-02-18T14:29:42.553Z,8.30
2019-02-18T14:32:15.871Z,8.28
2019-02-18T14:34:45.275Z,8.70
2019-02-18T14:37:14.265Z,8.55
2019-02-18T14:39:43.116Z,7.47
2019-02-18T14:42:12.310Z,8.88
2019-02-18T14:44:41.535Z,8.48
2019-02-18T14:47:10.246Z,8.45
2019-02-18T14:49:39.026Z,8.53
2019-02-18T14:52:08.208Z,7.28
2019-02-18T14:54:37.037Z,9.85
2019-02-18T14:57:05.839Z,7.03
2019-02-18T14:59:34.958Z,8.03
2019-02-18T15:02:03.713Z,7.87
2019-02-18T15:04:32.498Z,8.95
2019-02-18T15:07:01.438Z,8.80
2019-02-18T15:09:30.226Z,8.38
2019-02-18T15:11:59.615Z,8.50
2019-02-18T15:14:28.382Z,8.50
2019-02-18T15:16:57.329Z,8.27
2019-02-18T15:19:26.387Z,7.92
2019-02-18T15:21:55.378Z,8.58
2019-02-18T15:24:24.168Z,8.18
2019-02-18T15:26:52.998Z,7.80
2019-02-18T15:29:21.759Z,9.28
2019-02-18T15:31:51.553Z,9.08
2019-02-18T15:34:20.424Z,9.38
2019-02-18T15:36:52.222Z,8.83
2019-02-18T15:39:21.295Z,8.50
2019-02-18T15:41:50.098Z,8.78
2019-02-18T15:44:19.131Z,8.63
2019-02-18T15:46:48.472Z,8.95
2019-02-18T15:49:17.692Z,9.43
2019-02-18T15:51:46.550Z,9.15
2019-02-18T15:54:15.529Z,8.23
2019-02-18T15:56:44.611Z,8.15
2019-02-18T15:59:13.824Z,9.10
2019-02-18T16:01:42.753Z,9.40
2019-02-18T16:04:11.790Z,8.58
2019-02-18T16:06:40.774Z,10.03
2019-02-18T16:09:09.858Z,8.33
2019-02-18T16:11:38.949Z,9.68
2019-02-18T16:14:07.701Z,9.47
2019-02-18T16:16:36.865Z,8.28
2019-02-18T16:19:07.720Z,7.55
2019-02-18T16:21:36.442Z,9.28
2019-02-18T16:24:05.887Z,9.15
2019-02-18T16:26:35.230Z,9.18
2019-02-18T16:29:04.047Z,9.70
2019-02-18T16:31:33.181Z,8.90
2019-02-18T16:34:02.549Z,9.65
2019-02-18T16:36:31.642Z,10.00
2019-02-18T16:39:01.078Z,9.45
2019-02-18T16:41:30.106Z,8.78
2019-02-18T16:43:59.092Z,9.33
2019-02-18T16:46:31.527Z,9.98
2019-02-18T16:49:00.534Z,10.68
2019-02-18T16:51:29.213Z,10.50
2019-02-18T16:53:58.562Z,10.80
2019-02-18T16:56:27.954Z,9.88
2019-02-18T16:58:56.952Z,10.60
2019-02-18T17:01:28.048Z,11.25
2019-02-18T17:03:56.801Z,11.60
2019-02-18T17:06:25.707Z,10.25
2019-02-18T17:08:54.680Z,11.83
2019-02-18T17:11:23.999Z,10.60
2019-02-18T17:13:52.850Z,9.97
2019-02-18T17:16:21.916Z,10.27
2019-02-18T17:18:50.988Z,10.68
2019-02-18T17:21:19.836Z,8.97
2019-02-18T17:23:48.810Z,10.43
2019-02-18T17:26:17.749Z,9.33
2019-02-18T17:28:46.491Z,8.70
2019-02-18T17:31:15.379Z,10.07
2019-02-18T17:33:44.548Z,9.23
2019-02-18T17:36:13.552Z,10.53
2019-02-18T17:38:42.589Z,10.53
2019-02-18T17:41:11.313Z,9.33
2019-02-18T17:43:41.757Z,9.57
2019-02-18T17:46:10.734Z,8.90
2019-02-18T17:48:39.605Z,10.70
2019-02-18T17:51:08.328Z,9.83
2019-02-18T17:53:37.085Z,9.50
2019-02-18T17:56:06.101Z,9.03
2019-02-18T17:58:35.123Z,9.33
2019-02-18T18:01:06.939Z,10.03
2019-02-18T18:03:36.576Z,9.10
2019-02-18T18:06:05.627Z,10.05
2019-02-18T18:08:34.358Z,9.10
2019-02-18T18:11:03.449Z,8.47
2019-02-18T18:13:32.690Z,9.03
2019-02-18T18:16:02.748Z,8.33
2019-02-18T18:18:31.454Z,8.60
2019-02-18T18:21:00.322Z,9.40
2019-02-18T18:23:29.218Z,8.73
2019-02-18T18:25:58.259Z,8.83
2019-02-18T18:28:27.074Z,9.73
2019-02-18T18:30:56.070Z,9.90
2019-02-18T18:33:24.851Z,10.53
2019-02-18T18:35:53.628Z,10.87
2019-02-18T18:38:22.841Z,10.53
2019-02-18T18:40:51.627Z,9.73
2019-02-18T18:43:20.314Z,10.15
2019-02-18T18:45:48.984Z,9.77
2019-02-18T18:48:17.905Z,8.93
2019-02-18T18:50:47.043Z,9.80
2019-02-18T18:53:16.162Z,9.33
2019-02-18T18:55:45.266Z,10.57
2019-02-18T18:58:14.040Z,9.80
2019-02-18T19:00:43.322Z,10.43
2019-02-18T19:03:12.458Z,9.13
2019-02-18T19:05:41.184Z,10.10
2019-02-18T19:08:09.860Z,9.23
2019-02-18T19:10:38.558Z,9.53
2019-02-18T19:13:07.339Z,9.70
2019-02-18T19:15:36.934Z,9.27
2019-02-18T19:18:06.815Z,10.00
2019-02-18T19:20:36.148Z,9.17
2019-02-18T19:23:04.827Z,10.57
2019-02-18T19:25:34.449Z,10.90
2019-02-18T19:28:03.368Z,10.40
2019-02-18T19:30:32.840Z,9.87
2019-02-18T19:33:01.565Z,9.57
2019-02-18T19:35:30.350Z,10.60
2019-02-18T19:37:59.415Z,9.10
2019-02-18T19:40:28.354Z,10.20
2019-02-18T19:42:57.503Z,10.20
2019-02-18T19:45:26.537Z,9.47
2019-02-18T19:47:55.223Z,10.87
2019-02-18T19:50:24.045Z,9.33
2019-02-18T19:52:52.706Z,9.80
2019-02-18T19:55:21.718Z,10.53
2019-02-18T19:57:50.387Z,10.70
2019-02-18T20:00:21.570Z,10.47
2019-02-18T20:02:50.627Z,10.70
2019-02-18T20:05:19.510Z,11.07
2019-02-18T20:07:48.400Z,9.27
2019-02-18T20:10:17.285Z,11.17
2019-02-18T20:12:46.162Z,9.83
2019-02-18T20:15:15.288Z,9.57
2019-02-18T20:17:44.503Z,11.23
2019-02-18T20:20:13.395Z,12.13
2019-02-18T20:22:42.046Z,9.90
2019-02-18T20:25:11.166Z,10.67
2019-02-18T20:27:39.867Z,11.40
2019-02-18T20:30:09.450Z,10.47
2019-02-18T20:32:38.698Z,12.03
2019-02-18T20:35:08.535Z,9.90
2019-02-18T20:37:37.293Z,10.80
2019-02-18T20:40:06.614Z,11.43
2019-02-18T20:42:35.347Z,10.30
2019-02-18T20:45:04.309Z,10.90
2019-02-18T20:47:34.576Z,10.57
2019-02-18T20:50:03.261Z,11.97
2019-02-18T20:52:32.286Z,10.40
2019-02-18T20:55:01.302Z,11.83
2019-02-18T20:57:30.369Z,10.87
2019-02-18T20:59:59.034Z,11.33
2019-02-18T21:02:28.048Z,10.23
2019-02-18T21:04:56.950Z,11.30
2019-02-18T21:07:25.955Z,11.63
2019-02-18T21:09:55.007Z,11.03
2019-02-18T21:12:24.054Z,12.23
2019-02-18T21:14:53.306Z,11.53
2019-02-18T21:17:22.175Z,11.33
2019-02-18T21:19:51.429Z,12.07
2019-02-18T21:22:20.670Z,11.40
2019-02-18T21:24:49.691Z,11.10
2019-02-18T21:27:18.807Z,12.63
2019-02-18T21:29:47.534Z,11.93
2019-02-18T21:32:16.400Z,10.23
2019-02-18T21:34:46.381Z,11.20
2019-02-18T21:37:15.746Z,10.93
2019-02-18T21:39:44.459Z,11.03
2019-02-18T21:42:13.234Z,10.63
2019-02-18T21:44:41.914Z,10.20
2019-02-18T21:47:10.886Z,10.03
2019-02-18T21:49:39.644Z,10.03
2019-02-18T21:52:09.039Z,10.67
2019-02-18T21:54:38.086Z,9.57
2019-02-18T21:57:07.162Z,10.27
2019-02-18T21:59:35.857Z,9.93
2019-02-18T22:02:05.070Z,10.67
2019-02-18T22:04:33.804Z,11.03
2019-02-18T22:07:02.546Z,10.57
2019-02-18T22:09:31.458Z,11.63
2019-02-18T22:12:00.158Z,10.30
2019-02-18T22:14:33.638Z,11.03
2019-02-18T22:16:59.610Z,11.70
2019-02-18T22:19:28.814Z,10.33
2019-02-18T22:21:57.809Z,11.00
2019-02-18T22:24:27.209Z,12.00
2019-02-18T22:26:56.597Z,10.63
2019-02-18T22:29:25.480Z,10.23
2019-02-18T22:31:54.169Z,11.43
2019-02-18T22:34:22.908Z,11.17
2019-02-18T22:36:52.072Z,10.13
2019-02-18T22:39:20.806Z,10.23
2019-02-18T22:41:49.487Z,10.23
2019-02-18T22:44:18.211Z,10.33
2019-02-18T22:46:47.278Z,9.93
2019-02-18T22:49:16.014Z,10.77
2019-02-18T22:51:44.780Z,9.80
2019-02-18T22:54:13.887Z,9.43
2019-02-18T22:56:42.742Z,10.93
2019-02-18T22:59:11.991Z,10.93
2019-02-18T23:01:42.548Z,15.60
2019-02-18T23:04:11.283Z,11.93
2019-02-18T23:06:40.035Z,12.47
2019-02-18T23:09:12.444Z,10.63
2019-02-18T23:11:41.283Z,15.07
2019-02-18T23:14:10.089Z,10.63
2019-02-18T23:16:38.770Z,10.93
2019-02-18T23:19:07.650Z,10.77
2019-02-18T23:21:36.586Z,10.27
2019-02-18T23:24:05.402Z,10.83
2019-02-18T23:26:34.378Z,9.37
2019-02-18T23:29:03.425Z,11.17
2019-02-18T23:31:32.185Z,9.97
2019-02-18T23:34:01.219Z,11.10
2019-02-18T23:36:29.902Z,9.97
2019-02-18T23:39:00.730Z,11.33
2019-02-18T23:41:29.406Z,10.23
2019-02-18T23:43:58.435Z,10.47
2019-02-18T23:46:27.123Z,10.70
2019-02-18T23:48:56.034Z,9.37
2019-02-18T23:51:24.966Z,10.53
2019-02-18T23:53:53.910Z,10.00
2019-02-18T23:56:22.554Z,10.13
2019-02-18T23:58:52.162Z,10.30
